sensor_id;sensor_type;location;lat;lon;timestamp;temperature;humidity
75865;HTU21D;64510;46.704;38.274;2022-12-29T00:02:19;3.15;92.61
75865;HTU21D;64510;46.704;38.274;2022-12-29T00:04:45;3.16;92.69
75865;HTU21D;64510;46.704;38.274;2022-12-29T00:07:11;3.15;92.32
75865;HTU21D;64510;46.704;38.274;2022-12-29T00:09:37;3.14;92.54
75865;HTU21D;64510;46.704;38.274;2022-12-29T00:12:04;3.13;92.51
75865;HTU21D;64510;46.704;38.274;2022-12-29T00:14:30;3.12;92.46
75865;HTU21D;64510;46.704;38.274;2022-12-29T00:17:15;3.10;92.30
75865;HTU21D;64510;46.704;38.274;2022-12-29T00:19:41;3.06;92.25
75865;HTU21D;64510;46.704;38.274;2022-12-29T00:22:25;3.03;92.31
75865;HTU21D;64510;46.704;38.274;2022-12-29T00:25:12;3.00;92.33
75865;HTU21D;64510;46.704;38.274;2022-12-29T00:27:57;2.97;92.32
75865;HTU21D;64510;46.704;38.274;2022-12-29T00:30:42;2.93;92.40
75865;HTU21D;64510;46.704;38.274;2022-12-29T00:33:32;2.88;92.40
75865;HTU21D;64510;46.704;38.274;2022-12-29T00:36:25;2.84;92.40
75865;HTU21D;64510;46.704;38.274;2022-12-29T00:38:57;2.80;92.44
75865;HTU21D;64510;46.704;38.274;2022-12-29T00:41:42;2.76;92.53
75865;HTU21D;64510;46.704;38.274;2022-12-29T00:44:26;2.74;92.56
75865;HTU21D;64510;46.704;38.274;2022-12-29T00:46:52;2.71;92.56
75865;HTU21D;64510;46.704;38.274;2022-12-29T00:49:18;2.69;92.60
75865;HTU21D;64510;46.704;38.274;2022-12-29T00:52:05;2.67;92.64
75865;HTU21D;64510;46.704;38.274;2022-12-29T00:54:33;2.64;92.62
75865;HTU21D;64510;46.704;38.274;2022-12-29T00:57:00;2.60;92.63
75865;HTU21D;64510;46.704;38.274;2022-12-29T00:59:26;2.56;92.69
75865;HTU21D;64510;46.704;38.274;2022-12-29T01:01:54;2.53;92.69
75865;HTU21D;64510;46.704;38.274;2022-12-29T01:04:21;2.47;92.78
75865;HTU21D;64510;46.704;38.274;2022-12-29T01:06:47;2.44;92.78
75865;HTU21D;64510;46.704;38.274;2022-12-29T01:09:15;2.37;92.81
75865;HTU21D;64510;46.704;38.274;2022-12-29T01:12:00;2.29;92.85
75865;HTU21D;64510;46.704;38.274;2022-12-29T01:14:26;2.26;92.88
75865;HTU21D;64510;46.704;38.274;2022-12-29T01:16:53;2.21;93.01
75865;HTU21D;64510;46.704;38.274;2022-12-29T01:19:19;2.17;93.01
75865;HTU21D;64510;46.704;38.274;2022-12-29T01:21:46;2.14;93.09
75865;HTU21D;64510;46.704;38.274;2022-12-29T01:24:13;2.10;93.08
75865;HTU21D;64510;46.704;38.274;2022-12-29T01:26:39;2.06;93.14
75865;HTU21D;64510;46.704;38.274;2022-12-29T01:29:05;2.03;93.12
75865;HTU21D;64510;46.704;38.274;2022-12-29T01:31:31;2.00;93.12
75865;HTU21D;64510;46.704;38.274;2022-12-29T01:33:56;1.96;93.18
75865;HTU21D;64510;46.704;38.274;2022-12-29T01:36:23;1.93;93.23
75865;HTU21D;64510;46.704;38.274;2022-12-29T01:38:49;1.90;93.27
75865;HTU21D;64510;46.704;38.274;2022-12-29T01:41:16;1.87;93.20
75865;HTU21D;64510;46.704;38.274;2022-12-29T01:51:44;1.65;93.33
75865;HTU21D;64510;46.704;38.274;2022-12-29T01:54:28;1.62;93.37
75865;HTU21D;64510;46.704;38.274;2022-12-29T01:57:00;1.55;93.41
75865;HTU21D;64510;46.704;38.274;2022-12-29T01:59:36;1.52;93.49
75865;HTU21D;64510;46.704;38.274;2022-12-29T02:02:06;1.47;93.54
75865;HTU21D;64510;46.704;38.274;2022-12-29T02:04:33;1.41;93.62
75865;HTU21D;64510;46.704;38.274;2022-12-29T02:07:05;1.36;93.62
75865;HTU21D;64510;46.704;38.274;2022-12-29T02:09:33;1.34;93.67
75865;HTU21D;64510;46.704;38.274;2022-12-29T02:11:59;1.32;93.78
75865;HTU21D;64510;46.704;38.274;2022-12-29T02:14:26;1.27;93.81
75865;HTU21D;64510;46.704;38.274;2022-12-29T02:23:10;1.16;94.03
75865;HTU21D;64510;46.704;38.274;2022-12-29T02:31:22;1.05;94.10
75865;HTU21D;64510;46.704;38.274;2022-12-29T02:34:00;1.04;94.27
75865;HTU21D;64510;46.704;38.274;2022-12-29T02:41:58;1.03;94.52
75865;HTU21D;64510;46.704;38.274;2022-12-29T02:52:59;0.99;94.52
75865;HTU21D;64510;46.704;38.274;2022-12-29T02:55:25;0.97;94.52
75865;HTU21D;64510;46.704;38.274;2022-12-29T03:00:48;0.94;94.43
75865;HTU21D;64510;46.704;38.274;2022-12-29T03:06:01;0.82;94.41
75865;HTU21D;64510;46.704;38.274;2022-12-29T03:08:34;0.79;94.65
75865;HTU21D;64510;46.704;38.274;2022-12-29T03:11:10;0.79;94.63
75865;HTU21D;64510;46.704;38.274;2022-12-29T03:17:18;0.81;94.78
75865;HTU21D;64510;46.704;38.274;2022-12-29T03:19:48;0.83;94.75
75865;HTU21D;64510;46.704;38.274;2022-12-29T03:22:21;0.84;94.78
75865;HTU21D;64510;46.704;38.274;2022-12-29T03:27:49;0.82;94.67
75865;HTU21D;64510;46.704;38.274;2022-12-29T03:30:18;0.80;94.69
75865;HTU21D;64510;46.704;38.274;2022-12-29T03:32:51;0.80;94.75
75865;HTU21D;64510;46.704;38.274;2022-12-29T03:35:25;0.78;94.68
75865;HTU21D;64510;46.704;38.274;2022-12-29T03:38:10;0.76;94.68
75865;HTU21D;64510;46.704;38.274;2022-12-29T03:40:40;0.73;94.65
75865;HTU21D;64510;46.704;38.274;2022-12-29T03:43:07;0.69;94.70
75865;HTU21D;64510;46.704;38.274;2022-12-29T03:45:38;0.67;94.69
75865;HTU21D;64510;46.704;38.274;2022-12-29T03:48:04;0.66;94.69
75865;HTU21D;64510;46.704;38.274;2022-12-29T03:50:31;0.63;94.67
75865;HTU21D;64510;46.704;38.274;2022-12-29T03:52:57;0.57;94.63
75865;HTU21D;64510;46.704;38.274;2022-12-29T03:55:26;0.52;94.65
75865;HTU21D;64510;46.704;38.274;2022-12-29T03:57:52;0.45;94.75
75865;HTU21D;64510;46.704;38.274;2022-12-29T04:00:28;0.39;94.70
75865;HTU21D;64510;46.704;38.274;2022-12-29T04:02:54;0.35;94.80
75865;HTU21D;64510;46.704;38.274;2022-12-29T04:05:22;0.34;94.85
75865;HTU21D;64510;46.704;38.274;2022-12-29T04:07:50;0.30;94.91
75865;HTU21D;64510;46.704;38.274;2022-12-29T04:10:16;0.27;94.98
75865;HTU21D;64510;46.704;38.274;2022-12-29T04:12:44;0.27;95.04
75865;HTU21D;64510;46.704;38.274;2022-12-29T04:15:12;0.28;95.06
75865;HTU21D;64510;46.704;38.274;2022-12-29T04:17:39;0.27;95.13
75865;HTU21D;64510;46.704;38.274;2022-12-29T04:20:06;0.27;95.26
75865;HTU21D;64510;46.704;38.274;2022-12-29T04:23:02;0.27;95.26
75865;HTU21D;64510;46.704;38.274;2022-12-29T04:25:29;0.28;95.32
75865;HTU21D;64510;46.704;38.274;2022-12-29T04:27:56;0.29;95.42
75865;HTU21D;64510;46.704;38.274;2022-12-29T04:30:46;0.31;95.55
75865;HTU21D;64510;46.704;38.274;2022-12-29T04:33:18;0.34;95.62
75865;HTU21D;64510;46.704;38.274;2022-12-29T04:35:44;0.40;95.73
75865;HTU21D;64510;46.704;38.274;2022-12-29T04:38:11;0.47;95.77
75865;HTU21D;64510;46.704;38.274;2022-12-29T04:40:42;0.55;95.87
75865;HTU21D;64510;46.704;38.274;2022-12-29T04:43:09;0.60;95.91
75865;HTU21D;64510;46.704;38.274;2022-12-29T04:45:53;0.65;95.75
75865;HTU21D;64510;46.704;38.274;2022-12-29T04:48:30;0.72;95.89
75865;HTU21D;64510;46.704;38.274;2022-12-29T04:51:07;0.74;95.77
75865;HTU21D;64510;46.704;38.274;2022-12-29T04:53:37;0.76;95.72
75865;HTU21D;64510;46.704;38.274;2022-12-29T04:56:03;0.78;95.68
75865;HTU21D;64510;46.704;38.274;2022-12-29T04:58:29;0.80;95.64
75865;HTU21D;64510;46.704;38.274;2022-12-29T05:00:57;0.82;95.60
75865;HTU21D;64510;46.704;38.274;2022-12-29T05:03:26;0.82;95.52
75865;HTU21D;64510;46.704;38.274;2022-12-29T05:05:56;0.81;95.50
75865;HTU21D;64510;46.704;38.274;2022-12-29T05:08:23;0.78;95.46
75865;HTU21D;64510;46.704;38.274;2022-12-29T05:10:52;0.77;95.48
75865;HTU21D;64510;46.704;38.274;2022-12-29T05:13:19;0.76;95.48
75865;HTU21D;64510;46.704;38.274;2022-12-29T05:15:53;0.75;95.53
75865;HTU21D;64510;46.704;38.274;2022-12-29T05:18:21;0.71;95.55
75865;HTU21D;64510;46.704;38.274;2022-12-29T05:20:48;0.71;95.65
75865;HTU21D;64510;46.704;38.274;2022-12-29T05:23:15;0.71;95.75
75865;HTU21D;64510;46.704;38.274;2022-12-29T05:25:43;0.69;95.78
75865;HTU21D;64510;46.704;38.274;2022-12-29T05:28:27;0.68;95.88
75865;HTU21D;64510;46.704;38.274;2022-12-29T05:31:11;0.69;96.02
75865;HTU21D;64510;46.704;38.274;2022-12-29T05:33:37;0.72;96.12
75865;HTU21D;64510;46.704;38.274;2022-12-29T05:36:05;0.74;96.11
75865;HTU21D;64510;46.704;38.274;2022-12-29T05:38:31;0.78;96.31
75865;HTU21D;64510;46.704;38.274;2022-12-29T05:40:57;0.81;96.26
75865;HTU21D;64510;46.704;38.274;2022-12-29T05:43:53;0.86;96.49
75865;HTU21D;64510;46.704;38.274;2022-12-29T05:46:43;0.89;96.63
75865;HTU21D;64510;46.704;38.274;2022-12-29T05:49:15;0.94;96.46
75865;HTU21D;64510;46.704;38.274;2022-12-29T05:52:04;0.99;96.49
75865;HTU21D;64510;46.704;38.274;2022-12-29T05:54:32;1.07;96.56
75865;HTU21D;64510;46.704;38.274;2022-12-29T05:56:58;1.11;96.61
75865;HTU21D;64510;46.704;38.274;2022-12-29T05:59:24;1.19;96.58
75865;HTU21D;64510;46.704;38.274;2022-12-29T06:01:51;1.24;96.63
75865;HTU21D;64510;46.704;38.274;2022-12-29T06:04:17;1.27;96.58
75865;HTU21D;64510;46.704;38.274;2022-12-29T06:06:43;1.33;96.62
75865;HTU21D;64510;46.704;38.274;2022-12-29T06:09:18;1.39;96.71
75865;HTU21D;64510;46.704;38.274;2022-12-29T06:11:43;1.47;96.76
75865;HTU21D;64510;46.704;38.274;2022-12-29T06:14:10;1.55;96.84
75865;HTU21D;64510;46.704;38.274;2022-12-29T06:16:36;1.64;96.88
75865;HTU21D;64510;46.704;38.274;2022-12-29T06:19:04;1.69;96.81
75865;HTU21D;64510;46.704;38.274;2022-12-29T06:21:30;1.77;96.77
75865;HTU21D;64510;46.704;38.274;2022-12-29T06:23:59;1.84;96.75
75865;HTU21D;64510;46.704;38.274;2022-12-29T06:26:25;1.90;96.74
75865;HTU21D;64510;46.704;38.274;2022-12-29T06:28:51;1.97;96.66
75865;HTU21D;64510;46.704;38.274;2022-12-29T06:31:17;2.02;96.65
75865;HTU21D;64510;46.704;38.274;2022-12-29T06:33:44;2.06;96.62
75865;HTU21D;64510;46.704;38.274;2022-12-29T06:36:10;2.09;96.54
75865;HTU21D;64510;46.704;38.274;2022-12-29T06:38:36;2.12;96.56
75865;HTU21D;64510;46.704;38.274;2022-12-29T06:41:02;2.12;96.58
75865;HTU21D;64510;46.704;38.274;2022-12-29T06:43:33;2.13;96.52
75865;HTU21D;64510;46.704;38.274;2022-12-29T06:46:07;2.13;96.55
75865;HTU21D;64510;46.704;38.274;2022-12-29T06:48:33;2.13;96.59
75865;HTU21D;64510;46.704;38.274;2022-12-29T06:50:59;2.17;96.67
75865;HTU21D;64510;46.704;38.274;2022-12-29T06:53:25;2.21;96.62
75865;HTU21D;64510;46.704;38.274;2022-12-29T06:55:52;2.23;96.58
75865;HTU21D;64510;46.704;38.274;2022-12-29T06:58:18;2.25;96.56
75865;HTU21D;64510;46.704;38.274;2022-12-29T07:00:44;2.29;96.64
75865;HTU21D;64510;46.704;38.274;2022-12-29T07:03:10;2.38;96.71
75865;HTU21D;64510;46.704;38.274;2022-12-29T07:05:35;2.44;96.85
75865;HTU21D;64510;46.704;38.274;2022-12-29T07:08:01;2.50;96.67
75865;HTU21D;64510;46.704;38.274;2022-12-29T07:10:27;2.56;96.63
75865;HTU21D;64510;46.704;38.274;2022-12-29T07:12:53;2.60;96.64
75865;HTU21D;64510;46.704;38.274;2022-12-29T07:15:19;2.68;96.77
75865;HTU21D;64510;46.704;38.274;2022-12-29T07:17:45;2.76;96.70
75865;HTU21D;64510;46.704;38.274;2022-12-29T07:20:11;2.84;96.58
75865;HTU21D;64510;46.704;38.274;2022-12-29T07:22:37;2.91;96.51
75865;HTU21D;64510;46.704;38.274;2022-12-29T07:25:04;2.99;96.51
75865;HTU21D;64510;46.704;38.274;2022-12-29T07:27:30;3.06;96.44
75865;HTU21D;64510;46.704;38.274;2022-12-29T07:29:56;3.12;96.49
75865;HTU21D;64510;46.704;38.274;2022-12-29T07:32:22;3.16;96.28
75865;HTU21D;64510;46.704;38.274;2022-12-29T07:34:48;3.25;96.29
75865;HTU21D;64510;46.704;38.274;2022-12-29T07:37:16;3.31;96.28
75865;HTU21D;64510;46.704;38.274;2022-12-29T07:39:43;3.38;96.17
75865;HTU21D;64510;46.704;38.274;2022-12-29T07:42:09;3.42;96.11
75865;HTU21D;64510;46.704;38.274;2022-12-29T07:44:41;3.45;96.17
75865;HTU21D;64510;46.704;38.274;2022-12-29T07:47:26;3.52;96.00
75865;HTU21D;64510;46.704;38.274;2022-12-29T07:49:52;3.58;95.97
75865;HTU21D;64510;46.704;38.274;2022-12-29T07:52:18;3.63;95.98
75865;HTU21D;64510;46.704;38.274;2022-12-29T07:54:45;3.68;95.93
75865;HTU21D;64510;46.704;38.274;2022-12-29T07:57:11;3.74;95.89
75865;HTU21D;64510;46.704;38.274;2022-12-29T07:59:37;3.80;95.87
75865;HTU21D;64510;46.704;38.274;2022-12-29T08:02:03;3.85;95.73
75865;HTU21D;64510;46.704;38.274;2022-12-29T08:04:29;3.91;95.75
75865;HTU21D;64510;46.704;38.274;2022-12-29T08:06:55;3.98;95.59
75865;HTU21D;64510;46.704;38.274;2022-12-29T08:09:21;4.02;95.52
75865;HTU21D;64510;46.704;38.274;2022-12-29T08:11:47;4.06;95.47
75865;HTU21D;64510;46.704;38.274;2022-12-29T08:14:14;4.12;95.45
75865;HTU21D;64510;46.704;38.274;2022-12-29T08:16:39;4.16;95.36
75865;HTU21D;64510;46.704;38.274;2022-12-29T08:19:05;4.23;95.37
75865;HTU21D;64510;46.704;38.274;2022-12-29T08:21:31;4.30;95.35
75865;HTU21D;64510;46.704;38.274;2022-12-29T08:23:57;4.35;95.27
75865;HTU21D;64510;46.704;38.274;2022-12-29T08:26:24;4.43;95.23
75865;HTU21D;64510;46.704;38.274;2022-12-29T08:28:53;4.48;95.10
75865;HTU21D;64510;46.704;38.274;2022-12-29T08:31:18;4.52;95.03
75865;HTU21D;64510;46.704;38.274;2022-12-29T08:33:45;4.58;94.82
75865;HTU21D;64510;46.704;38.274;2022-12-29T08:36:11;4.60;94.56
75865;HTU21D;64510;46.704;38.274;2022-12-29T08:38:37;4.62;94.65
75865;HTU21D;64510;46.704;38.274;2022-12-29T08:41:03;4.64;94.62
75865;HTU21D;64510;46.704;38.274;2022-12-29T08:43:30;4.67;94.56
75865;HTU21D;64510;46.704;38.274;2022-12-29T08:45:58;4.72;94.62
75865;HTU21D;64510;46.704;38.274;2022-12-29T08:48:24;4.78;94.40
75865;HTU21D;64510;46.704;38.274;2022-12-29T08:50:50;4.81;94.13
75865;HTU21D;64510;46.704;38.274;2022-12-29T08:53:18;4.89;94.31
75865;HTU21D;64510;46.704;38.274;2022-12-29T08:55:53;4.93;94.16
75865;HTU21D;64510;46.704;38.274;2022-12-29T08:58:20;4.97;94.14
75865;HTU21D;64510;46.704;38.274;2022-12-29T09:00:46;5.01;93.59
75865;HTU21D;64510;46.704;38.274;2022-12-29T09:03:12;5.04;93.27
75865;HTU21D;64510;46.704;38.274;2022-12-29T09:05:37;5.10;93.72
75865;HTU21D;64510;46.704;38.274;2022-12-29T09:08:04;5.12;92.27
75865;HTU21D;64510;46.704;38.274;2022-12-29T09:10:30;5.16;92.57
75865;HTU21D;64510;46.704;38.274;2022-12-29T09:12:56;5.19;92.98
75865;HTU21D;64510;46.704;38.274;2022-12-29T09:15:22;5.26;92.80
75865;HTU21D;64510;46.704;38.274;2022-12-29T09:17:48;5.31;92.62
75865;HTU21D;64510;46.704;38.274;2022-12-29T09:20:18;5.35;92.66
75865;HTU21D;64510;46.704;38.274;2022-12-29T09:22:45;5.42;92.55
75865;HTU21D;64510;46.704;38.274;2022-12-29T09:25:12;5.47;92.65
75865;HTU21D;64510;46.704;38.274;2022-12-29T09:27:38;5.53;91.84
75865;HTU21D;64510;46.704;38.274;2022-12-29T09:30:06;5.57;92.15
75865;HTU21D;64510;46.704;38.274;2022-12-29T09:32:34;5.63;92.15
75865;HTU21D;64510;46.704;38.274;2022-12-29T09:35:00;5.70;92.30
75865;HTU21D;64510;46.704;38.274;2022-12-29T09:37:26;5.78;92.18
75865;HTU21D;64510;46.704;38.274;2022-12-29T09:39:52;5.85;91.94
75865;HTU21D;64510;46.704;38.274;2022-12-29T09:47:32;6.13;90.32
75865;HTU21D;64510;46.704;38.274;2022-12-29T09:50:02;6.16;89.68
75865;HTU21D;64510;46.704;38.274;2022-12-29T09:52:32;6.19;89.86
75865;HTU21D;64510;46.704;38.274;2022-12-29T09:55:09;6.20;90.05
75865;HTU21D;64510;46.704;38.274;2022-12-29T09:57:42;6.19;89.97
75865;HTU21D;64510;46.704;38.274;2022-12-29T10:00:17;6.19;88.96
75865;HTU21D;64510;46.704;38.274;2022-12-29T10:02:49;6.22;89.21
75865;HTU21D;64510;46.704;38.274;2022-12-29T10:10:42;6.41;87.73
75865;HTU21D;64510;46.704;38.274;2022-12-29T10:13:26;6.46;88.41
75865;HTU21D;64510;46.704;38.274;2022-12-29T10:16:11;6.53;88.48
75865;HTU21D;64510;46.704;38.274;2022-12-29T10:19:04;6.63;88.25
75865;HTU21D;64510;46.704;38.274;2022-12-29T10:21:54;6.79;88.05
75865;HTU21D;64510;46.704;38.274;2022-12-29T10:24:22;6.89;88.17
75865;HTU21D;64510;46.704;38.274;2022-12-29T10:26:51;6.94;87.67
75865;HTU21D;64510;46.704;38.274;2022-12-29T10:29:23;6.98;87.31
75865;HTU21D;64510;46.704;38.274;2022-12-29T10:32:02;7.04;87.35
75865;HTU21D;64510;46.704;38.274;2022-12-29T10:34:36;7.02;86.16
75865;HTU21D;64510;46.704;38.274;2022-12-29T10:37:10;7.05;86.99
75865;HTU21D;64510;46.704;38.274;2022-12-29T10:39:43;6.98;86.48
75865;HTU21D;64510;46.704;38.274;2022-12-29T10:42:15;6.95;87.50
75865;HTU21D;64510;46.704;38.274;2022-12-29T10:44:45;6.91;87.11
75865;HTU21D;64510;46.704;38.274;2022-12-29T10:47:21;6.93;87.47
75865;HTU21D;64510;46.704;38.274;2022-12-29T10:49:48;6.91;86.72
75865;HTU21D;64510;46.704;38.274;2022-12-29T10:52:16;6.94;87.28
75865;HTU21D;64510;46.704;38.274;2022-12-29T10:54:53;6.93;86.77
75865;HTU21D;64510;46.704;38.274;2022-12-29T10:57:38;6.86;86.39
75865;HTU21D;64510;46.704;38.274;2022-12-29T11:00:14;6.81;86.80
75865;HTU21D;64510;46.704;38.274;2022-12-29T11:08:12;6.68;86.32
75865;HTU21D;64510;46.704;38.274;2022-12-29T11:10:41;6.71;86.48
75865;HTU21D;64510;46.704;38.274;2022-12-29T11:13:17;6.68;86.38
75865;HTU21D;64510;46.704;38.274;2022-12-29T11:15:48;6.63;86.15
75865;HTU21D;64510;46.704;38.274;2022-12-29T11:20:47;6.67;86.41
75865;HTU21D;64510;46.704;38.274;2022-12-29T11:23:35;6.78;86.03
75865;HTU21D;64510;46.704;38.274;2022-12-29T11:28:45;6.82;85.87
75865;HTU21D;64510;46.704;38.274;2022-12-29T11:31:15;6.82;85.57
75865;HTU21D;64510;46.704;38.274;2022-12-29T11:33:42;6.81;85.28
75865;HTU21D;64510;46.704;38.274;2022-12-29T11:36:17;6.79;84.61
75865;HTU21D;64510;46.704;38.274;2022-12-29T11:39:02;6.74;84.58
75865;HTU21D;64510;46.704;38.274;2022-12-29T11:41:30;6.69;85.22
75865;HTU21D;64510;46.704;38.274;2022-12-29T11:44:02;6.67;84.97
75865;HTU21D;64510;46.704;38.274;2022-12-29T11:46:34;6.61;85.03
75865;HTU21D;64510;46.704;38.274;2022-12-29T11:49:02;6.49;84.91
75865;HTU21D;64510;46.704;38.274;2022-12-29T11:51:47;6.36;84.99
75865;HTU21D;64510;46.704;38.274;2022-12-29T11:54:29;6.26;85.45
75865;HTU21D;64510;46.704;38.274;2022-12-29T11:56:57;6.20;85.72
75865;HTU21D;64510;46.704;38.274;2022-12-29T11:59:40;6.21;85.66
75865;HTU21D;64510;46.704;38.274;2022-12-29T12:04:49;6.17;85.79
75865;HTU21D;64510;46.704;38.274;2022-12-29T12:07:42;6.17;85.64
75865;HTU21D;64510;46.704;38.274;2022-12-29T12:10:20;6.20;85.86
75865;HTU21D;64510;46.704;38.274;2022-12-29T12:13:02;6.21;85.85
75865;HTU21D;64510;46.704;38.274;2022-12-29T12:15:39;6.16;85.38
75865;HTU21D;64510;46.704;38.274;2022-12-29T12:18:17;6.09;85.61
75865;HTU21D;64510;46.704;38.274;2022-12-29T12:20:52;6.01;85.69
75865;HTU21D;64510;46.704;38.274;2022-12-29T12:23:36;5.92;85.75
75865;HTU21D;64510;46.704;38.274;2022-12-29T12:26:09;5.84;86.10
75865;HTU21D;64510;46.704;38.274;2022-12-29T12:28:52;5.79;86.02
75865;HTU21D;64510;46.704;38.274;2022-12-29T12:31:45;5.72;86.37
75865;HTU21D;64510;46.704;38.274;2022-12-29T12:39:54;5.49;86.66
75865;HTU21D;64510;46.704;38.274;2022-12-29T12:50:56;5.35;87.26
75865;HTU21D;64510;46.704;38.274;2022-12-29T12:53:34;5.35;87.59
75865;HTU21D;64510;46.704;38.274;2022-12-29T12:59:19;5.35;87.65
75865;HTU21D;64510;46.704;38.274;2022-12-29T13:10:25;5.32;87.82
75865;HTU21D;64510;46.704;38.274;2022-12-29T13:19:08;5.23;87.81
75865;HTU21D;64510;46.704;38.274;2022-12-29T13:27:40;5.11;88.18
75865;HTU21D;64510;46.704;38.274;2022-12-29T13:30:22;5.06;88.28
75865;HTU21D;64510;46.704;38.274;2022-12-29T13:35:56;4.97;88.50
75865;HTU21D;64510;46.704;38.274;2022-12-29T13:38:29;4.92;88.55
75865;HTU21D;64510;46.704;38.274;2022-12-29T13:41:00;4.90;88.62
75865;HTU21D;64510;46.704;38.274;2022-12-29T13:43:30;4.84;88.71
75865;HTU21D;64510;46.704;38.274;2022-12-29T13:46:03;4.79;88.73
75865;HTU21D;64510;46.704;38.274;2022-12-29T13:48:49;4.75;88.82
75865;HTU21D;64510;46.704;38.274;2022-12-29T13:51:18;4.71;88.94
75865;HTU21D;64510;46.704;38.274;2022-12-29T13:56:46;4.59;89.05
75865;HTU21D;64510;46.704;38.274;2022-12-29T14:04:55;4.32;89.31
75865;HTU21D;64510;46.704;38.274;2022-12-29T14:07:22;4.21;89.41
75865;HTU21D;64510;46.704;38.274;2022-12-29T14:09:50;4.14;89.50
75865;HTU21D;64510;46.704;38.274;2022-12-29T14:17:43;3.91;89.86
75865;HTU21D;64510;46.704;38.274;2022-12-29T14:20:22;3.87;89.99
75865;HTU21D;64510;46.704;38.274;2022-12-29T14:23:16;3.79;90.14
75865;HTU21D;64510;46.704;38.274;2022-12-29T14:26:16;3.75;90.36
75865;HTU21D;64510;46.704;38.274;2022-12-29T14:28:52;3.71;90.42
75865;HTU21D;64510;46.704;38.274;2022-12-29T14:36:38;3.69;90.79
75865;HTU21D;64510;46.704;38.274;2022-12-29T14:39:40;3.70;91.01
75865;HTU21D;64510;46.704;38.274;2022-12-29T14:42:13;3.70;90.99
75865;HTU21D;64510;46.704;38.274;2022-12-29T14:49:46;3.72;91.01
75865;HTU21D;64510;46.704;38.274;2022-12-29T14:52:18;3.68;90.93
75865;HTU21D;64510;46.704;38.274;2022-12-29T14:54:48;3.63;91.07
75865;HTU21D;64510;46.704;38.274;2022-12-29T14:57:27;3.59;90.98
75865;HTU21D;64510;46.704;38.274;2022-12-29T15:00:01;3.55;91.05
75865;HTU21D;64510;46.704;38.274;2022-12-29T15:02:33;3.47;91.00
75865;HTU21D;64510;46.704;38.274;2022-12-29T15:05:02;3.41;91.10
75865;HTU21D;64510;46.704;38.274;2022-12-29T15:07:29;3.35;91.22
75865;HTU21D;64510;46.704;38.274;2022-12-29T15:10:05;3.30;91.33
75865;HTU21D;64510;46.704;38.274;2022-12-29T15:12:38;3.24;91.59
75865;HTU21D;64510;46.704;38.274;2022-12-29T15:15:20;3.21;91.52
75865;HTU21D;64510;46.704;38.274;2022-12-29T15:17:47;3.17;91.54
75865;HTU21D;64510;46.704;38.274;2022-12-29T15:20:30;3.16;91.61
75865;HTU21D;64510;46.704;38.274;2022-12-29T15:23:23;3.13;91.75
75865;HTU21D;64510;46.704;38.274;2022-12-29T15:26:26;3.08;91.74
75865;HTU21D;64510;46.704;38.274;2022-12-29T15:28:50;3.05;92.05
75865;HTU21D;64510;46.704;38.274;2022-12-29T15:31:17;3.05;92.10
75865;HTU21D;64510;46.704;38.274;2022-12-29T15:33:46;3.08;92.79
75865;HTU21D;64510;46.704;38.274;2022-12-29T15:36:19;3.13;92.98
75865;HTU21D;64510;46.704;38.274;2022-12-29T15:38:45;3.18;93.64
75865;HTU21D;64510;46.704;38.274;2022-12-29T15:41:41;3.29;93.76
75865;HTU21D;64510;46.704;38.274;2022-12-29T15:44:39;3.39;93.80
75865;HTU21D;64510;46.704;38.274;2022-12-29T15:47:13;3.48;94.20
75865;HTU21D;64510;46.704;38.274;2022-12-29T15:49:47;3.54;94.76
75865;HTU21D;64510;46.704;38.274;2022-12-29T15:52:18;3.64;94.29
75865;HTU21D;64510;46.704;38.274;2022-12-29T15:54:45;3.70;94.80
75865;HTU21D;64510;46.704;38.274;2022-12-29T15:57:31;3.77;95.10
75865;HTU21D;64510;46.704;38.274;2022-12-29T16:00:22;3.83;94.43
75865;HTU21D;64510;46.704;38.274;2022-12-29T16:02:48;3.85;94.52
75865;HTU21D;64510;46.704;38.274;2022-12-29T16:05:18;3.85;94.27
75865;HTU21D;64510;46.704;38.274;2022-12-29T16:07:56;3.87;94.01
75865;HTU21D;64510;46.704;38.274;2022-12-29T16:10:39;3.88;93.95
75865;HTU21D;64510;46.704;38.274;2022-12-29T16:15:46;3.94;93.92
75865;HTU21D;64510;46.704;38.274;2022-12-29T16:18:26;4.01;93.88
75865;HTU21D;64510;46.704;38.274;2022-12-29T16:20:53;3.99;93.77
75865;HTU21D;64510;46.704;38.274;2022-12-29T16:23:23;4.00;93.59
75865;HTU21D;64510;46.704;38.274;2022-12-29T16:25:51;4.00;92.65
75865;HTU21D;64510;46.704;38.274;2022-12-29T16:28:43;4.06;93.08
75865;HTU21D;64510;46.704;38.274;2022-12-29T16:31:22;4.06;92.37
75865;HTU21D;64510;46.704;38.274;2022-12-29T16:33:53;4.07;92.34
75865;HTU21D;64510;46.704;38.274;2022-12-29T16:36:51;4.13;92.87
75865;HTU21D;64510;46.704;38.274;2022-12-29T16:41:51;4.18;92.88
75865;HTU21D;64510;46.704;38.274;2022-12-29T16:44:30;4.24;92.76
75865;HTU21D;64510;46.704;38.274;2022-12-29T16:49:29;4.34;92.56
75865;HTU21D;64510;46.704;38.274;2022-12-29T16:51:56;4.35;92.13
75865;HTU21D;64510;46.704;38.274;2022-12-29T16:54:33;4.37;92.43
75865;HTU21D;64510;46.704;38.274;2022-12-29T16:57:01;4.37;92.20
75865;HTU21D;64510;46.704;38.274;2022-12-29T16:59:40;4.38;92.00
75865;HTU21D;64510;46.704;38.274;2022-12-29T17:02:14;4.39;92.05
75865;HTU21D;64510;46.704;38.274;2022-12-29T17:04:41;4.37;90.55
75865;HTU21D;64510;46.704;38.274;2022-12-29T17:07:27;4.41;91.93
75865;HTU21D;64510;46.704;38.274;2022-12-29T17:09:53;4.42;91.79
75865;HTU21D;64510;46.704;38.274;2022-12-29T17:12:26;4.46;91.46
75865;HTU21D;64510;46.704;38.274;2022-12-29T17:14:58;4.49;91.26
75865;HTU21D;64510;46.704;38.274;2022-12-29T17:17:40;4.52;91.65
75865;HTU21D;64510;46.704;38.274;2022-12-29T17:20:20;4.57;91.66
75865;HTU21D;64510;46.704;38.274;2022-12-29T17:22:47;4.63;91.85
75865;HTU21D;64510;46.704;38.274;2022-12-29T17:25:19;4.67;91.89
75865;HTU21D;64510;46.704;38.274;2022-12-29T17:27:53;4.68;90.96
75865;HTU21D;64510;46.704;38.274;2022-12-29T17:30:22;4.72;91.13
75865;HTU21D;64510;46.704;38.274;2022-12-29T17:32:59;4.75;91.36
75865;HTU21D;64510;46.704;38.274;2022-12-29T17:35:26;4.75;91.17
75865;HTU21D;64510;46.704;38.274;2022-12-29T17:37:53;4.77;91.04
75865;HTU21D;64510;46.704;38.274;2022-12-29T17:40:31;4.82;91.49
75865;HTU21D;64510;46.704;38.274;2022-12-29T17:42:58;4.80;90.82
75865;HTU21D;64510;46.704;38.274;2022-12-29T17:45:27;4.83;91.18
75865;HTU21D;64510;46.704;38.274;2022-12-29T17:47:54;4.80;91.04
75865;HTU21D;64510;46.704;38.274;2022-12-29T17:50:23;4.77;90.24
75865;HTU21D;64510;46.704;38.274;2022-12-29T17:53:02;4.79;91.12
75865;HTU21D;64510;46.704;38.274;2022-12-29T17:55:30;4.76;90.41
75865;HTU21D;64510;46.704;38.274;2022-12-29T17:57:56;4.76;90.89
75865;HTU21D;64510;46.704;38.274;2022-12-29T18:00:27;4.72;90.79
75865;HTU21D;64510;46.704;38.274;2022-12-29T18:02:56;4.67;90.24
75865;HTU21D;64510;46.704;38.274;2022-12-29T18:05:27;4.65;90.40
75865;HTU21D;64510;46.704;38.274;2022-12-29T18:07:56;4.61;90.37